Terminal Aerodrome Forecast
Issued by NWS Raleigh/Durham, NC

Home | Current Version | Previous Version | Text Only | Print | Product List | Glossary On
Versions: 1 2 3 4 5 6 7 8 9 10 11 12 13 14 15 16 17 18 19 20 21 22 23
000
FTUS42 KRAH 200528
TAFFAY
TAF
KFAY 200528Z 2006/2106 03003KT P6SM OVC250
     FM201000 06006KT P6SM OVC100
     FM201400 06009KT P6SM -RA SCT018 OVC070
      TEMPO 2015/2018 4SM -RA BR OVC020
     FM201900 05008KT 6SM BR OVC018=

USA.gov is the U.S. government's official web portal to all federal, state and local government web resources and services.